EFW461M EGKK-LPPR
Flight info
| Callsign | EFW461M |
|---|---|
| Flight time | 1h 53m |
| Altitude | 35000 |
| Route | NOVMA1X NOVMA L620 SAM M195 LORKU DCT POZOF DCT LOTEE DCT ELTEP/N0390F230 T328 ASPOR ASPOR6C |
| Aircraft | A321/M-SDE3FGIJ1KRWXY/SB1 |
Departure
| Time | 2026-05-04 07:24 |
|---|---|
| Airport | London Gatwick Airport (EGKK) |
Arrival
| Time | 2026-05-04 09:17 |
|---|---|
| Airport | Francisco de Sá Carneiro Airport (LPPR) |
| Time | Latitude | Longitude | Altitude | Speed | Heading |
|---|---|---|---|---|---|
| 2026-05-04 06:29 | 51.15445 | -0.16436 | 195 ft | 0 kts | 77° |
| 2026-05-04 06:30 | 51.15446 | -0.16426 | 205 ft | 0 kts | 77° |
| 2026-05-04 06:34 | 51.15445 | -0.16436 | 179 ft | 0 kts | 77° |
| 2026-05-04 06:34 | 51.15446 | -0.16426 | 205 ft | 0 kts | 77° |
| 2026-05-04 07:13 | 51.15443 | -0.16453 | 211 ft | 4 kts | 77° |
| 2026-05-04 07:13 | 51.15438 | -0.16487 | 205 ft | 4 kts | 71° |
| 2026-05-04 07:14 | 51.15381 | -0.16497 | 208 ft | 0 kts | 347° |
| 2026-05-04 07:18 | 51.15383 | -0.16497 | 208 ft | 1 kts | 347° |
| 2026-05-04 07:18 | 51.15394 | -0.16501 | 208 ft | 0 kts | 347° |
| 2026-05-04 07:19 | 51.15400 | -0.16505 | 210 ft | 2 kts | 339° |
| 2026-05-04 07:19 | 51.15410 | -0.16523 | 214 ft | 3 kts | 305° |
| 2026-05-04 07:19 | 51.15412 | -0.16559 | 216 ft | 4 kts | 262° |
| 2026-05-04 07:19 | 51.15406 | -0.16612 | 207 ft | 6 kts | 259° |
| 2026-05-04 07:20 | 51.15395 | -0.16681 | 208 ft | 7 kts | 244° |
| 2026-05-04 07:20 | 51.15357 | -0.16698 | 210 ft | 2 kts | 153° |
| 2026-05-04 07:20 | 51.15337 | -0.16688 | 211 ft | 4 kts | 165° |
| 2026-05-04 07:20 | 51.15308 | -0.16676 | 205 ft | 5 kts | 166° |
| 2026-05-04 07:22 | 51.15184 | -0.16636 | 205 ft | 6 kts | 174° |
| 2026-05-04 07:22 | 51.15145 | -0.16670 | 217 ft | 8 kts | 237° |
| 2026-05-04 07:23 | 51.15128 | -0.16762 | 215 ft | 10 kts | 258° |
| 2026-05-04 07:23 | 51.15112 | -0.16891 | 216 ft | 18 kts | 258° |
| 2026-05-04 07:23 | 51.15034 | -0.17453 | 210 ft | 89 kts | 258° |
| 2026-05-04 07:23 | 51.14853 | -0.18765 | 210 ft | 151 kts | 257° |
| 2026-05-04 07:24 | 51.14610 | -0.20567 | 590 ft | 169 kts | 258° |
| 2026-05-04 07:24 | 51.14358 | -0.22408 | 1324 ft | 172 kts | 259° |
| 2026-05-04 07:24 | 51.14085 | -0.24366 | 1783 ft | 192 kts | 258° |
| 2026-05-04 07:24 | 51.13762 | -0.26577 | 2042 ft | 215 kts | 257° |
| 2026-05-04 07:25 | 51.13523 | -0.28155 | 2199 ft | 230 kts | 258° |
| 2026-05-04 07:26 | 51.10140 | -0.47494 | 7079 ft | 272 kts | 243° |
| 2026-05-04 07:27 | 51.09280 | -0.50184 | 7850 ft | 274 kts | 242° |
| 2026-05-04 07:27 | 51.08416 | -0.52886 | 8622 ft | 276 kts | 242° |
| 2026-05-04 07:27 | 51.07546 | -0.55623 | 9420 ft | 277 kts | 243° |
| 2026-05-04 07:27 | 51.06675 | -0.58380 | 10167 ft | 280 kts | 242° |
| 2026-05-04 07:28 | 51.05847 | -0.61023 | 10812 ft | 282 kts | 244° |
| 2026-05-04 07:28 | 51.05196 | -0.64001 | 11466 ft | 287 kts | 256° |
| 2026-05-04 07:28 | 51.04781 | -0.67127 | 12131 ft | 290 kts | 256° |
| 2026-05-04 07:28 | 51.04357 | -0.70272 | 12802 ft | 294 kts | 256° |
| 2026-05-04 07:29 | 51.03930 | -0.73426 | 13469 ft | 297 kts | 256° |
| 2026-05-04 07:29 | 51.03494 | -0.76653 | 13999 ft | 305 kts | 256° |
| 2026-05-04 07:29 | 51.03030 | -0.80064 | 14128 ft | 326 kts | 256° |
| 2026-05-04 07:29 | 51.02536 | -0.83684 | 14256 ft | 344 kts | 256° |
| 2026-05-04 07:30 | 51.02015 | -0.87484 | 14486 ft | 358 kts | 256° |
| 2026-05-04 07:30 | 51.01483 | -0.91375 | 14984 ft | 363 kts | 256° |
| 2026-05-04 07:30 | 51.00945 | -0.95309 | 15543 ft | 366 kts | 256° |
| 2026-05-04 07:30 | 51.00405 | -0.99275 | 16102 ft | 369 kts | 256° |
| 2026-05-04 07:31 | 50.99861 | -1.03285 | 16667 ft | 372 kts | 256° |
| 2026-05-04 07:31 | 50.99313 | -1.07301 | 17228 ft | 375 kts | 256° |
| 2026-05-04 07:33 | 50.93855 | -1.35177 | 20812 ft | 382 kts | 228° |
| 2026-05-04 07:33 | 50.91954 | -1.38119 | 21297 ft | 383 kts | 218° |
| 2026-05-04 07:33 | 50.89758 | -1.40515 | 21784 ft | 384 kts | 213° |
| 2026-05-04 07:33 | 50.87524 | -1.42828 | 22269 ft | 385 kts | 213° |
| 2026-05-04 07:34 | 50.85273 | -1.45165 | 22764 ft | 387 kts | 213° |
| 2026-05-04 07:34 | 50.83025 | -1.47503 | 23245 ft | 388 kts | 213° |
| 2026-05-04 07:34 | 50.80761 | -1.49856 | 23696 ft | 390 kts | 213° |
| 2026-05-04 07:34 | 50.78489 | -1.52216 | 24091 ft | 391 kts | 213° |
| 2026-05-04 07:35 | 50.76212 | -1.54578 | 24481 ft | 393 kts | 213° |
| 2026-05-04 07:35 | 50.73955 | -1.56910 | 24865 ft | 395 kts | 213° |
| 2026-05-04 07:35 | 50.71643 | -1.59292 | 25254 ft | 396 kts | 213° |
| 2026-05-04 07:35 | 50.69331 | -1.61670 | 25620 ft | 398 kts | 212° |
| 2026-05-04 07:36 | 50.67007 | -1.64059 | 25989 ft | 400 kts | 212° |
| 2026-05-04 07:36 | 50.64674 | -1.66462 | 26353 ft | 402 kts | 212° |
| 2026-05-04 07:38 | 50.48021 | -1.83521 | 28802 ft | 414 kts | 211° |
| 2026-05-04 07:38 | 50.45602 | -1.85989 | 29120 ft | 416 kts | 211° |
| 2026-05-04 07:38 | 50.43170 | -1.88463 | 29428 ft | 418 kts | 211° |
| 2026-05-04 07:38 | 50.40727 | -1.90949 | 29720 ft | 419 kts | 211° |
| 2026-05-04 07:39 | 50.38276 | -1.93440 | 29992 ft | 421 kts | 211° |
| 2026-05-04 07:39 | 50.35818 | -1.95931 | 30267 ft | 421 kts | 211° |
| 2026-05-04 07:39 | 50.33357 | -1.98423 | 30560 ft | 421 kts | 211° |
| 2026-05-04 07:39 | 50.30895 | -2.00911 | 30832 ft | 421 kts | 211° |
| 2026-05-04 07:40 | 50.28434 | -2.03394 | 31096 ft | 421 kts | 211° |
| 2026-05-04 07:40 | 50.25967 | -2.05879 | 31353 ft | 422 kts | 211° |
| 2026-05-04 07:40 | 50.23495 | -2.08360 | 31611 ft | 422 kts | 211° |
| 2026-05-04 07:40 | 50.21014 | -2.10810 | 31860 ft | 423 kts | 211° |
| 2026-05-04 07:41 | 50.18519 | -2.13239 | 32116 ft | 423 kts | 211° |
| 2026-05-04 07:41 | 50.16008 | -2.15664 | 32369 ft | 424 kts | 210° |
| 2026-05-04 07:41 | 50.13500 | -2.18081 | 32620 ft | 424 kts | 210° |
| 2026-05-04 07:41 | 50.10993 | -2.20500 | 32872 ft | 424 kts | 211° |
| 2026-05-04 07:42 | 50.08481 | -2.22929 | 33117 ft | 425 kts | 211° |
| 2026-05-04 07:42 | 50.05971 | -2.25359 | 33373 ft | 425 kts | 211° |
| 2026-05-04 07:42 | 50.03459 | -2.27791 | 33624 ft | 425 kts | 211° |
| 2026-05-04 07:42 | 50.00949 | -2.30221 | 33862 ft | 426 kts | 211° |
| 2026-05-04 07:43 | 49.98438 | -2.32651 | 34088 ft | 426 kts | 211° |
| 2026-05-04 07:43 | 49.95916 | -2.35086 | 34276 ft | 426 kts | 211° |
| 2026-05-04 07:43 | 49.93361 | -2.37413 | 34447 ft | 426 kts | 205° |
| 2026-05-04 07:43 | 49.90660 | -2.39336 | 34619 ft | 427 kts | 204° |
| 2026-05-04 07:44 | 49.87955 | -2.41229 | 34791 ft | 428 kts | 204° |
| 2026-05-04 07:44 | 49.85234 | -2.43132 | 34950 ft | 429 kts | 204° |
| 2026-05-04 07:44 | 49.79807 | -2.46912 | 35002 ft | 426 kts | 204° |
| 2026-05-04 07:45 | 49.74403 | -2.50665 | 34999 ft | 426 kts | 204° |
| 2026-05-04 07:45 | 49.69006 | -2.54402 | 35002 ft | 425 kts | 203° |
| 2026-05-04 07:46 | 49.63606 | -2.58141 | 35001 ft | 425 kts | 204° |
| 2026-05-04 07:46 | 49.58197 | -2.61885 | 35006 ft | 426 kts | 203° |
| 2026-05-04 07:47 | 49.52792 | -2.65623 | 35013 ft | 426 kts | 203° |
| 2026-05-04 07:49 | 49.31142 | -2.80434 | 35026 ft | 427 kts | 203° |
| 2026-05-04 07:49 | 49.25724 | -2.84117 | 35027 ft | 427 kts | 203° |
| 2026-05-04 07:50 | 49.20291 | -2.87810 | 35021 ft | 427 kts | 203° |
| 2026-05-04 07:50 | 49.14873 | -2.91491 | 35026 ft | 427 kts | 203° |
| 2026-05-04 07:51 | 49.09439 | -2.95166 | 35024 ft | 426 kts | 203° |
| 2026-05-04 07:51 | 49.04018 | -2.98821 | 35019 ft | 426 kts | 203° |
| 2026-05-04 07:52 | 48.98589 | -3.02480 | 35018 ft | 426 kts | 203° |
| 2026-05-04 07:52 | 48.93160 | -3.06128 | 35021 ft | 427 kts | 202° |
| 2026-05-04 07:54 | 48.71393 | -3.20641 | 35014 ft | 428 kts | 202° |
| 2026-05-04 07:55 | 48.65970 | -3.24231 | 35018 ft | 428 kts | 202° |
| 2026-05-04 07:55 | 48.60475 | -3.27873 | 35016 ft | 429 kts | 203° |
| 2026-05-04 07:56 | 48.55040 | -3.31465 | 35017 ft | 429 kts | 202° |
| 2026-05-04 07:56 | 48.49556 | -3.35068 | 35016 ft | 430 kts | 202° |
| 2026-05-04 07:57 | 48.44041 | -3.38693 | 35020 ft | 430 kts | 203° |
| 2026-05-04 07:57 | 48.38554 | -3.42291 | 35021 ft | 430 kts | 202° |
| 2026-05-04 07:58 | 48.33061 | -3.45882 | 35018 ft | 430 kts | 202° |
| 2026-05-04 07:58 | 48.27570 | -3.49469 | 35013 ft | 430 kts | 202° |
| 2026-05-04 07:59 | 48.22077 | -3.53041 | 35014 ft | 430 kts | 202° |
| 2026-05-04 07:59 | 48.16577 | -3.56605 | 35012 ft | 430 kts | 202° |
| 2026-05-04 08:00 | 48.11084 | -3.60170 | 35010 ft | 431 kts | 202° |
| 2026-05-04 08:02 | 47.89075 | -3.74331 | 35015 ft | 430 kts | 202° |
| 2026-05-04 08:02 | 47.83608 | -3.77835 | 35014 ft | 430 kts | 202° |
| 2026-05-04 08:03 | 47.78077 | -3.81374 | 35010 ft | 430 kts | 202° |
| 2026-05-04 08:03 | 47.72577 | -3.84884 | 35008 ft | 430 kts | 202° |
| 2026-05-04 08:04 | 47.67088 | -3.88371 | 35006 ft | 430 kts | 202° |
| 2026-05-04 08:04 | 47.61582 | -3.91858 | 35000 ft | 430 kts | 202° |
| 2026-05-04 08:05 | 47.56121 | -3.95318 | 35000 ft | 430 kts | 202° |
| 2026-05-04 08:05 | 47.50623 | -3.98791 | 35000 ft | 430 kts | 202° |
| 2026-05-04 08:06 | 47.45121 | -4.02260 | 35002 ft | 430 kts | 202° |
| 2026-05-04 08:06 | 47.39616 | -4.05716 | 35004 ft | 430 kts | 202° |
| 2026-05-04 08:08 | 47.17583 | -4.19484 | 35006 ft | 430 kts | 202° |
| 2026-05-04 08:11 | 46.93003 | -4.35562 | 35006 ft | 430 kts | 205° |
| 2026-05-04 08:11 | 46.85789 | -4.40525 | 34993 ft | 430 kts | 205° |
| 2026-05-04 08:12 | 46.79477 | -4.44801 | 35000 ft | 430 kts | 205° |
| 2026-05-04 08:12 | 46.74928 | -4.47877 | 35003 ft | 431 kts | 205° |
| 2026-05-04 08:13 | 46.69489 | -4.51551 | 35009 ft | 431 kts | 205° |
| 2026-05-04 08:13 | 46.64052 | -4.55217 | 35001 ft | 431 kts | 205° |
| 2026-05-04 08:14 | 46.58609 | -4.58879 | 35001 ft | 431 kts | 205° |
| 2026-05-04 08:16 | 46.36842 | -4.73449 | 35004 ft | 431 kts | 205° |
| 2026-05-04 08:16 | 46.31389 | -4.77079 | 35002 ft | 431 kts | 205° |
| 2026-05-04 08:17 | 46.25946 | -4.80700 | 35008 ft | 431 kts | 205° |
| 2026-05-04 08:17 | 46.20498 | -4.84325 | 35005 ft | 431 kts | 205° |
| 2026-05-04 08:19 | 45.98723 | -4.98674 | 35006 ft | 431 kts | 204° |
| 2026-05-04 08:20 | 45.93270 | -5.02259 | 35010 ft | 431 kts | 204° |
| 2026-05-04 08:20 | 45.87806 | -5.05838 | 35017 ft | 431 kts | 204° |
| 2026-05-04 08:21 | 45.82347 | -5.09399 | 35019 ft | 431 kts | 204° |
| 2026-05-04 08:21 | 45.76848 | -5.12970 | 35018 ft | 431 kts | 204° |
| 2026-05-04 08:22 | 45.71421 | -5.16496 | 35020 ft | 431 kts | 204° |
| 2026-05-04 08:24 | 45.49562 | -5.30637 | 35022 ft | 431 kts | 204° |
| 2026-05-04 08:24 | 45.44091 | -5.34154 | 35021 ft | 431 kts | 204° |
| 2026-05-04 08:25 | 45.38627 | -5.37669 | 35021 ft | 431 kts | 204° |
| 2026-05-04 08:25 | 45.33152 | -5.41169 | 35028 ft | 431 kts | 204° |
| 2026-05-04 08:27 | 45.11300 | -5.55110 | 35037 ft | 431 kts | 204° |
| 2026-05-04 08:28 | 45.05823 | -5.58571 | 35039 ft | 431 kts | 204° |
| 2026-05-04 08:28 | 45.00346 | -5.62028 | 35038 ft | 431 kts | 204° |
| 2026-05-04 08:29 | 44.94873 | -5.65482 | 35036 ft | 431 kts | 204° |
| 2026-05-04 08:31 | 44.72970 | -5.79239 | 35040 ft | 431 kts | 204° |
| 2026-05-04 08:33 | 44.55097 | -5.94372 | 35046 ft | 430 kts | 215° |
| 2026-05-04 08:33 | 44.52653 | -5.96786 | 35044 ft | 430 kts | 215° |
| 2026-05-04 08:35 | 44.33134 | -6.16007 | 35047 ft | 429 kts | 215° |
| 2026-05-04 08:35 | 44.28239 | -6.20803 | 35043 ft | 430 kts | 215° |
| 2026-05-04 08:37 | 44.11127 | -6.37501 | 35059 ft | 430 kts | 216° |
| 2026-05-04 08:38 | 44.06221 | -6.42267 | 35059 ft | 430 kts | 216° |
| 2026-05-04 08:38 | 44.01313 | -6.47019 | 35058 ft | 430 kts | 216° |
| 2026-05-04 08:40 | 43.81640 | -6.65965 | 35059 ft | 431 kts | 216° |
| 2026-05-04 08:41 | 43.76709 | -6.70691 | 35057 ft | 431 kts | 216° |
| 2026-05-04 08:41 | 43.71778 | -6.75410 | 35059 ft | 431 kts | 216° |
| 2026-05-04 08:42 | 43.66853 | -6.80118 | 35059 ft | 431 kts | 216° |
| 2026-05-04 08:42 | 43.61923 | -6.84810 | 35058 ft | 430 kts | 216° |
| 2026-05-04 08:43 | 43.56990 | -6.89496 | 35061 ft | 430 kts | 216° |
| 2026-05-04 08:43 | 43.52094 | -6.94146 | 35059 ft | 430 kts | 216° |
| 2026-05-04 08:44 | 43.47139 | -6.98848 | 35058 ft | 430 kts | 216° |
| 2026-05-04 08:46 | 43.27403 | -7.17436 | 35059 ft | 431 kts | 216° |
| 2026-05-04 08:46 | 43.22459 | -7.22079 | 35061 ft | 431 kts | 216° |
| 2026-05-04 08:47 | 43.17502 | -7.26711 | 35072 ft | 431 kts | 216° |
| 2026-05-04 08:47 | 43.12541 | -7.31352 | 35069 ft | 432 kts | 216° |
| 2026-05-04 08:48 | 43.07583 | -7.35975 | 35070 ft | 432 kts | 216° |
| 2026-05-04 08:48 | 43.02610 | -7.40595 | 35076 ft | 432 kts | 216° |
| 2026-05-04 08:49 | 42.97634 | -7.45207 | 35075 ft | 432 kts | 216° |
| 2026-05-04 08:50 | 42.80217 | -7.61306 | 35077 ft | 432 kts | 216° |
| 2026-05-04 08:51 | 42.75229 | -7.65892 | 35080 ft | 432 kts | 216° |
| 2026-05-04 08:51 | 42.70243 | -7.70468 | 35073 ft | 432 kts | 216° |
| 2026-05-04 08:52 | 42.65251 | -7.75037 | 35074 ft | 432 kts | 216° |
| 2026-05-04 08:52 | 42.59956 | -7.78936 | 35075 ft | 437 kts | 202° |
| 2026-05-04 08:54 | 42.36284 | -7.87870 | 32885 ft | 457 kts | 199° |
| 2026-05-04 08:55 | 42.33218 | -7.89009 | 32028 ft | 456 kts | 199° |
| 2026-05-04 08:55 | 42.30155 | -7.90145 | 31149 ft | 457 kts | 199° |
| 2026-05-04 08:55 | 42.27108 | -7.91274 | 30658 ft | 449 kts | 199° |
| 2026-05-04 08:55 | 42.24110 | -7.92385 | 30077 ft | 444 kts | 199° |
| 2026-05-04 08:57 | 42.04233 | -7.99747 | 26300 ft | 404 kts | 199° |
| 2026-05-04 09:01 | 41.71023 | -8.15950 | 20205 ft | 351 kts | 210° |
| 2026-05-04 09:01 | 41.68767 | -8.17195 | 19776 ft | 352 kts | 202° |
| 2026-05-04 09:01 | 41.66455 | -8.18244 | 19340 ft | 350 kts | 202° |
| 2026-05-04 09:01 | 41.64161 | -8.19289 | 18900 ft | 348 kts | 202° |
| 2026-05-04 09:02 | 41.61876 | -8.20333 | 18454 ft | 346 kts | 202° |
| 2026-05-04 09:02 | 41.59604 | -8.21373 | 17966 ft | 344 kts | 202° |
| 2026-05-04 09:02 | 41.57354 | -8.22402 | 17520 ft | 341 kts | 202° |
| 2026-05-04 09:02 | 41.55117 | -8.23423 | 17080 ft | 339 kts | 202° |
| 2026-05-04 09:03 | 41.52895 | -8.24436 | 16635 ft | 336 kts | 202° |
| 2026-05-04 09:03 | 41.50688 | -8.25444 | 16186 ft | 334 kts | 202° |
| 2026-05-04 09:03 | 41.48498 | -8.26444 | 15747 ft | 332 kts | 202° |
| 2026-05-04 09:03 | 41.46317 | -8.27439 | 15312 ft | 330 kts | 202° |
| 2026-05-04 09:04 | 41.44154 | -8.28424 | 14873 ft | 328 kts | 201° |
| 2026-05-04 09:04 | 41.42000 | -8.29402 | 14424 ft | 326 kts | 201° |
| 2026-05-04 09:04 | 41.39863 | -8.30372 | 14001 ft | 324 kts | 201° |
| 2026-05-04 09:04 | 41.37736 | -8.31338 | 13549 ft | 322 kts | 201° |
| 2026-05-04 09:05 | 41.35623 | -8.32297 | 13095 ft | 320 kts | 201° |
| 2026-05-04 09:05 | 41.33526 | -8.33249 | 12651 ft | 318 kts | 201° |
| 2026-05-04 09:05 | 41.31430 | -8.34200 | 12223 ft | 317 kts | 201° |
| 2026-05-04 09:05 | 41.29346 | -8.35145 | 11809 ft | 315 kts | 201° |
| 2026-05-04 09:06 | 41.27279 | -8.36080 | 11386 ft | 313 kts | 201° |
| 2026-05-04 09:07 | 41.13421 | -8.42337 | 9654 ft | 293 kts | 201° |
| 2026-05-04 09:08 | 41.11494 | -8.43204 | 9348 ft | 292 kts | 201° |
| 2026-05-04 09:08 | 41.09581 | -8.44064 | 8968 ft | 290 kts | 201° |
| 2026-05-04 09:08 | 41.07677 | -8.44919 | 8587 ft | 288 kts | 201° |
| 2026-05-04 09:08 | 41.05785 | -8.45770 | 8191 ft | 286 kts | 201° |
| 2026-05-04 09:09 | 41.03904 | -8.46616 | 7818 ft | 284 kts | 201° |
| 2026-05-04 09:09 | 41.02132 | -8.47701 | 7446 ft | 279 kts | 217° |
| 2026-05-04 09:09 | 41.00744 | -8.49445 | 7075 ft | 273 kts | 236° |
| 2026-05-04 09:09 | 40.99869 | -8.51638 | 6672 ft | 269 kts | 255° |
| 2026-05-04 09:10 | 40.99471 | -8.54032 | 6269 ft | 266 kts | 261° |
| 2026-05-04 09:10 | 40.99122 | -8.56424 | 5862 ft | 262 kts | 261° |
| 2026-05-04 09:10 | 40.98960 | -8.58762 | 5493 ft | 250 kts | 281° |
| 2026-05-04 09:10 | 40.99678 | -8.60792 | 5131 ft | 245 kts | 315° |
| 2026-05-04 09:11 | 41.01118 | -8.61911 | 4786 ft | 243 kts | 346° |
| 2026-05-04 09:11 | 41.02772 | -8.62340 | 4431 ft | 241 kts | 348° |
| 2026-05-04 09:11 | 41.04414 | -8.62769 | 4058 ft | 240 kts | 348° |
| 2026-05-04 09:11 | 41.06058 | -8.63209 | 3678 ft | 241 kts | 348° |
| 2026-05-04 09:12 | 41.07675 | -8.63639 | 3344 ft | 231 kts | 348° |
| 2026-05-04 09:12 | 41.09206 | -8.64042 | 3091 ft | 215 kts | 348° |
| 2026-05-04 09:14 | 41.18716 | -8.66565 | 1165 ft | 182 kts | 347° |
| 2026-05-04 09:14 | 41.19875 | -8.66841 | 995 ft | 154 kts | 349° |
| 2026-05-04 09:14 | 41.20866 | -8.67082 | 761 ft | 140 kts | 350° |
| 2026-05-04 09:14 | 41.21795 | -8.67339 | 535 ft | 134 kts | 350° |
| 2026-05-04 09:15 | 41.22703 | -8.67577 | 409 ft | 132 kts | 350° |
| 2026-05-04 09:15 | 41.23601 | -8.67810 | 245 ft | 131 kts | 350° |
| 2026-05-04 09:15 | 41.24406 | -8.68020 | 213 ft | 94 kts | 348° |
| 2026-05-04 09:15 | 41.24883 | -8.68145 | 203 ft | 53 kts | 348° |
| 2026-05-04 09:17 | 41.24911 | -8.67921 | 209 ft | 24 kts | 166° |
| 2026-05-04 09:18 | 41.24760 | -8.67835 | 211 ft | 22 kts | 157° |
| 2026-05-04 09:18 | 41.24616 | -8.67792 | 214 ft | 20 kts | 168° |
| 2026-05-04 09:18 | 41.24487 | -8.67757 | 220 ft | 18 kts | 168° |
| 2026-05-04 09:18 | 41.24372 | -8.67723 | 226 ft | 16 kts | 167° |
| 2026-05-04 09:19 | 41.24282 | -8.67666 | 232 ft | 13 kts | 133° |
| 2026-05-04 09:19 | 41.24224 | -8.67590 | 236 ft | 11 kts | 151° |
| 2026-05-04 09:19 | 41.24150 | -8.67562 | 237 ft | 12 kts | 168° |
| 2026-05-04 09:19 | 41.24062 | -8.67539 | 237 ft | 14 kts | 168° |
| 2026-05-04 09:20 | 41.23963 | -8.67513 | 237 ft | 15 kts | 168° |
| 2026-05-04 09:20 | 41.23851 | -8.67483 | 237 ft | 17 kts | 168° |
| 2026-05-04 09:20 | 41.23747 | -8.67436 | 238 ft | 11 kts | 138° |
| 2026-05-04 09:20 | 41.23699 | -8.67369 | 242 ft | 9 kts | 140° |
| 2026-05-04 09:21 | 41.23642 | -8.67341 | 242 ft | 10 kts | 170° |
| 2026-05-04 09:21 | 41.23569 | -8.67359 | 240 ft | 12 kts | 205° |
| 2026-05-04 09:21 | 41.23527 | -8.67344 | 240 ft | 6 kts | 119° |
| 2026-05-04 09:21 | 41.23516 | -8.67314 | 242 ft | 2 kts | 114° |
| 2026-05-04 09:22 | 41.23511 | -8.67298 | 242 ft | 2 kts | 114° |
| 2026-05-04 09:22 | 41.23506 | -8.67283 | 242 ft | 1 kts | 114° |
| 2026-05-04 09:22 | 41.23505 | -8.67281 | 242 ft | 0 kts | 114° |